sensor_id;sensor_type;location;lat;lon;timestamp;pressure;altitude;pressure_sealevel;temperature;humidity
8320;BME280;4197;42.130;24.746;2023-04-28T00:01:25;99700.16;;;10.54;53.77
8320;BME280;4197;42.130;24.746;2023-04-28T00:03:54;99700.94;;;10.55;53.47
8320;BME280;4197;42.130;24.746;2023-04-28T00:06:24;99695.22;;;10.44;54.41
8320;BME280;4197;42.130;24.746;2023-04-28T00:08:52;99704.66;;;10.50;54.68
8320;BME280;4197;42.130;24.746;2023-04-28T00:11:21;99690.50;;;10.41;55.49
8320;BME280;4197;42.130;24.746;2023-04-28T00:13:49;99700.25;;;10.30;56.07
8320;BME280;4197;42.130;24.746;2023-04-28T00:16:17;99701.72;;;10.27;56.86
8320;BME280;4197;42.130;24.746;2023-04-28T00:18:46;99699.31;;;10.38;55.83
8320;BME280;4197;42.130;24.746;2023-04-28T00:21:16;99695.66;;;10.46;55.47
8320;BME280;4197;42.130;24.746;2023-04-28T00:23:44;99692.41;;;10.40;55.42
8320;BME280;4197;42.130;24.746;2023-04-28T00:26:13;99694.13;;;10.33;56.09
8320;BME280;4197;42.130;24.746;2023-04-28T00:28:41;99695.28;;;10.19;56.51
8320;BME280;4197;42.130;24.746;2023-04-28T00:31:11;99698.81;;;10.20;56.43
8320;BME280;4197;42.130;24.746;2023-04-28T00:33:39;99693.63;;;10.15;56.66
8320;BME280;4197;42.130;24.746;2023-04-28T00:36:09;99689.44;;;10.17;55.75
8320;BME280;4197;42.130;24.746;2023-04-28T00:38:38;99692.50;;;10.16;55.19
8320;BME280;4197;42.130;24.746;2023-04-28T00:41:08;99693.88;;;10.10;55.33
8320;BME280;4197;42.130;24.746;2023-04-28T00:43:44;99686.13;;;9.96;55.60
8320;BME280;4197;42.130;24.746;2023-04-28T00:46:19;99687.13;;;10.03;55.14
8320;BME280;4197;42.130;24.746;2023-04-28T00:48:48;99687.47;;;10.02;54.90
8320;BME280;4197;42.130;24.746;2023-04-28T00:51:17;99692.00;;;9.98;55.20
8320;BME280;4197;42.130;24.746;2023-04-28T00:53:47;99690.75;;;9.95;55.19
8320;BME280;4197;42.130;24.746;2023-04-28T00:56:15;99692.34;;;9.96;54.98
8320;BME280;4197;42.130;24.746;2023-04-28T00:58:43;99688.75;;;9.92;55.45
8320;BME280;4197;42.130;24.746;2023-04-28T01:01:11;99691.56;;;9.83;55.86
8320;BME280;4197;42.130;24.746;2023-04-28T01:03:40;99697.44;;;9.86;56.34
8320;BME280;4197;42.130;24.746;2023-04-28T01:06:09;99698.34;;;9.77;56.85
8320;BME280;4197;42.130;24.746;2023-04-28T01:08:37;99695.19;;;9.75;56.60
8320;BME280;4197;42.130;24.746;2023-04-28T01:11:07;99703.00;;;9.77;56.77
8320;BME280;4197;42.130;24.746;2023-04-28T01:13:36;99705.59;;;9.73;57.27
8320;BME280;4197;42.130;24.746;2023-04-28T01:16:05;99711.25;;;9.68;57.62
8320;BME280;4197;42.130;24.746;2023-04-28T01:18:35;99710.59;;;9.59;58.47
8320;BME280;4197;42.130;24.746;2023-04-28T01:21:04;99711.94;;;9.53;58.61
8320;BME280;4197;42.130;24.746;2023-04-28T01:23:34;99717.34;;;9.53;58.80
8320;BME280;4197;42.130;24.746;2023-04-28T01:26:03;99709.91;;;9.50;58.79
8320;BME280;4197;42.130;24.746;2023-04-28T01:28:32;99708.47;;;9.40;59.59
8320;BME280;4197;42.130;24.746;2023-04-28T01:31:00;99698.63;;;9.35;59.92
8320;BME280;4197;42.130;24.746;2023-04-28T01:33:29;99703.72;;;9.25;60.65
8320;BME280;4197;42.130;24.746;2023-04-28T01:35:58;99697.19;;;9.26;60.87
8320;BME280;4197;42.130;24.746;2023-04-28T01:38:26;99698.19;;;9.21;60.44
8320;BME280;4197;42.130;24.746;2023-04-28T01:40:54;99701.59;;;9.18;60.49
8320;BME280;4197;42.130;24.746;2023-04-28T01:43:25;99700.66;;;9.14;60.39
8320;BME280;4197;42.130;24.746;2023-04-28T01:45:53;99705.28;;;9.13;60.37
8320;BME280;4197;42.130;24.746;2023-04-28T01:48:22;99709.69;;;9.18;59.92
8320;BME280;4197;42.130;24.746;2023-04-28T01:50:50;99707.22;;;9.13;59.65
8320;BME280;4197;42.130;24.746;2023-04-28T01:53:18;99699.66;;;9.06;60.54
8320;BME280;4197;42.130;24.746;2023-04-28T01:55:46;99710.34;;;9.03;60.36
8320;BME280;4197;42.130;24.746;2023-04-28T01:58:15;99717.34;;;9.04;59.96
8320;BME280;4197;42.130;24.746;2023-04-28T02:00:44;99716.78;;;8.98;60.01
8320;BME280;4197;42.130;24.746;2023-04-28T02:03:12;99719.34;;;8.94;60.30
8320;BME280;4197;42.130;24.746;2023-04-28T02:05:40;99718.09;;;8.92;60.28
8320;BME280;4197;42.130;24.746;2023-04-28T02:08:08;99720.72;;;8.88;60.28
8320;BME280;4197;42.130;24.746;2023-04-28T02:10:37;99717.53;;;8.86;59.95
8320;BME280;4197;42.130;24.746;2023-04-28T02:13:05;99717.44;;;8.83;59.72
8320;BME280;4197;42.130;24.746;2023-04-28T02:15:33;99722.84;;;8.83;60.01
8320;BME280;4197;42.130;24.746;2023-04-28T02:18:07;99716.53;;;8.79;60.23
8320;BME280;4197;42.130;24.746;2023-04-28T02:20:35;99723.72;;;8.75;60.45
8320;BME280;4197;42.130;24.746;2023-04-28T02:23:04;99720.69;;;8.76;59.63
8320;BME280;4197;42.130;24.746;2023-04-28T02:25:32;99725.63;;;8.74;60.22
8320;BME280;4197;42.130;24.746;2023-04-28T02:28:00;99737.78;;;8.68;60.56
8320;BME280;4197;42.130;24.746;2023-04-28T02:30:28;99743.88;;;8.65;60.79
8320;BME280;4197;42.130;24.746;2023-04-28T02:32:57;99737.53;;;8.61;60.49
8320;BME280;4197;42.130;24.746;2023-04-28T02:35:26;99738.88;;;8.55;60.64
8320;BME280;4197;42.130;24.746;2023-04-28T02:37:54;99741.56;;;8.55;59.95
8320;BME280;4197;42.130;24.746;2023-04-28T02:40:22;99744.84;;;8.60;59.63
8320;BME280;4197;42.130;24.746;2023-04-28T02:42:50;99742.81;;;8.57;59.07
8320;BME280;4197;42.130;24.746;2023-04-28T02:45:19;99737.31;;;8.54;59.21
8320;BME280;4197;42.130;24.746;2023-04-28T02:47:47;99734.91;;;8.52;59.15
8320;BME280;4197;42.130;24.746;2023-04-28T02:50:15;99740.06;;;8.45;59.42
8320;BME280;4197;42.130;24.746;2023-04-28T02:52:45;99735.91;;;8.47;59.42
8320;BME280;4197;42.130;24.746;2023-04-28T02:55:14;99735.91;;;8.47;59.01
8320;BME280;4197;42.130;24.746;2023-04-28T02:57:49;99746.59;;;8.44;59.14
8320;BME280;4197;42.130;24.746;2023-04-28T03:00:18;99744.56;;;8.41;58.81
8320;BME280;4197;42.130;24.746;2023-04-28T03:02:46;99740.78;;;8.33;59.16
8320;BME280;4197;42.130;24.746;2023-04-28T03:05:14;99733.94;;;8.36;58.76
8320;BME280;4197;42.130;24.746;2023-04-28T03:07:42;99746.19;;;8.33;58.25
8320;BME280;4197;42.130;24.746;2023-04-28T03:10:12;99747.50;;;8.27;58.59
8320;BME280;4197;42.130;24.746;2023-04-28T03:12:40;99742.78;;;8.24;58.70
8320;BME280;4197;42.130;24.746;2023-04-28T03:15:08;99748.38;;;8.19;58.87
8320;BME280;4197;42.130;24.746;2023-04-28T03:17:39;99758.88;;;8.20;58.78
8320;BME280;4197;42.130;24.746;2023-04-28T03:20:11;99750.41;;;8.22;58.63
8320;BME280;4197;42.130;24.746;2023-04-28T03:22:39;99756.16;;;8.20;58.19
8320;BME280;4197;42.130;24.746;2023-04-28T03:25:08;99757.59;;;8.18;58.47
8320;BME280;4197;42.130;24.746;2023-04-28T03:27:38;99769.88;;;8.15;58.65
8320;BME280;4197;42.130;24.746;2023-04-28T03:30:07;99774.00;;;8.13;58.76
8320;BME280;4197;42.130;24.746;2023-04-28T03:32:36;99775.09;;;8.12;58.92
8320;BME280;4197;42.130;24.746;2023-04-28T03:35:04;99775.94;;;8.12;58.14
8320;BME280;4197;42.130;24.746;2023-04-28T03:37:33;99799.88;;;8.14;58.23
8320;BME280;4197;42.130;24.746;2023-04-28T03:40:01;99791.13;;;8.17;58.15
8320;BME280;4197;42.130;24.746;2023-04-28T03:42:29;99797.00;;;8.19;58.23
8320;BME280;4197;42.130;24.746;2023-04-28T03:44:59;99798.72;;;8.23;57.79
8320;BME280;4197;42.130;24.746;2023-04-28T03:47:27;99805.50;;;8.30;58.06
8320;BME280;4197;42.130;24.746;2023-04-28T03:49:55;99812.13;;;8.41;57.11
8320;BME280;4197;42.130;24.746;2023-04-28T03:52:24;99809.34;;;8.49;57.12
8320;BME280;4197;42.130;24.746;2023-04-28T03:54:53;99827.72;;;8.56;56.65
8320;BME280;4197;42.130;24.746;2023-04-28T03:57:21;99821.59;;;8.68;56.00
8320;BME280;4197;42.130;24.746;2023-04-28T03:59:49;99824.03;;;8.82;55.32
8320;BME280;4197;42.130;24.746;2023-04-28T04:02:19;99833.97;;;8.90;54.97
8320;BME280;4197;42.130;24.746;2023-04-28T04:04:47;99838.81;;;8.97;54.73
8320;BME280;4197;42.130;24.746;2023-04-28T04:07:16;99836.97;;;9.09;54.22
8320;BME280;4197;42.130;24.746;2023-04-28T04:09:44;99836.41;;;9.16;53.57
8320;BME280;4197;42.130;24.746;2023-04-28T04:12:12;99846.22;;;9.21;53.58
8320;BME280;4197;42.130;24.746;2023-04-28T04:14:41;99844.22;;;9.30;52.96
8320;BME280;4197;42.130;24.746;2023-04-28T04:17:09;99846.81;;;9.38;53.61
8320;BME280;4197;42.130;24.746;2023-04-28T04:19:38;99857.22;;;9.49;52.81
8320;BME280;4197;42.130;24.746;2023-04-28T04:22:09;99857.00;;;9.54;52.67
8320;BME280;4197;42.130;24.746;2023-04-28T04:24:37;99850.81;;;9.53;52.03
8320;BME280;4197;42.130;24.746;2023-04-28T04:27:08;99864.66;;;9.64;52.61
8320;BME280;4197;42.130;24.746;2023-04-28T04:29:36;99861.88;;;9.73;51.65
8320;BME280;4197;42.130;24.746;2023-04-28T04:32:05;99866.63;;;9.76;51.45
8320;BME280;4197;42.130;24.746;2023-04-28T04:34:33;99862.34;;;9.87;51.69
8320;BME280;4197;42.130;24.746;2023-04-28T04:37:03;99860.63;;;9.95;51.01
8320;BME280;4197;42.130;24.746;2023-04-28T04:39:31;99866.03;;;10.07;50.36
8320;BME280;4197;42.130;24.746;2023-04-28T04:41:59;99857.56;;;10.09;50.34
8320;BME280;4197;42.130;24.746;2023-04-28T04:44:42;99856.44;;;10.10;50.90
8320;BME280;4197;42.130;24.746;2023-04-28T04:47:10;99865.91;;;10.16;50.36
8320;BME280;4197;42.130;24.746;2023-04-28T04:49:38;99868.72;;;10.19;49.83
8320;BME280;4197;42.130;24.746;2023-04-28T04:52:08;99870.88;;;10.26;50.37
8320;BME280;4197;42.130;24.746;2023-04-28T04:54:36;99874.19;;;10.32;50.11
8320;BME280;4197;42.130;24.746;2023-04-28T04:57:04;99881.50;;;10.43;49.19
8320;BME280;4197;42.130;24.746;2023-04-28T04:59:33;99889.97;;;10.42;49.46
8320;BME280;4197;42.130;24.746;2023-04-28T05:02:01;99890.91;;;10.34;49.86
8320;BME280;4197;42.130;24.746;2023-04-28T05:04:30;99895.59;;;10.49;49.96
8320;BME280;4197;42.130;24.746;2023-04-28T05:06:59;99901.16;;;10.40;49.62
8320;BME280;4197;42.130;24.746;2023-04-28T05:09:28;99891.31;;;10.48;49.89
8320;BME280;4197;42.130;24.746;2023-04-28T05:11:57;99903.94;;;10.68;49.30
8320;BME280;4197;42.130;24.746;2023-04-28T05:14:26;99908.53;;;10.80;48.53
8320;BME280;4197;42.130;24.746;2023-04-28T05:16:54;99908.19;;;10.82;48.56
8320;BME280;4197;42.130;24.746;2023-04-28T05:19:22;99915.03;;;10.91;48.45
8320;BME280;4197;42.130;24.746;2023-04-28T05:21:51;99912.69;;;10.90;48.35
8320;BME280;4197;42.130;24.746;2023-04-28T05:24:20;99905.72;;;10.77;47.75
8320;BME280;4197;42.130;24.746;2023-04-28T05:26:51;99906.94;;;10.79;48.20
8320;BME280;4197;42.130;24.746;2023-04-28T05:29:19;99903.88;;;10.81;47.98
8320;BME280;4197;42.130;24.746;2023-04-28T05:31:48;99905.41;;;10.94;48.23
8320;BME280;4197;42.130;24.746;2023-04-28T05:34:17;99916.00;;;11.11;47.74
8320;BME280;4197;42.130;24.746;2023-04-28T05:36:45;99913.22;;;11.24;48.57
8320;BME280;4197;42.130;24.746;2023-04-28T05:39:13;99917.41;;;11.21;46.87
8320;BME280;4197;42.130;24.746;2023-04-28T05:41:42;99922.50;;;11.23;46.85
8320;BME280;4197;42.130;24.746;2023-04-28T05:44:11;99920.97;;;11.09;47.57
8320;BME280;4197;42.130;24.746;2023-04-28T05:46:40;99926.41;;;11.09;47.35
8320;BME280;4197;42.130;24.746;2023-04-28T05:49:09;99927.03;;;11.19;45.93
8320;BME280;4197;42.130;24.746;2023-04-28T05:51:37;99933.41;;;11.10;46.24
8320;BME280;4197;42.130;24.746;2023-04-28T05:54:05;99928.22;;;11.05;46.18
8320;BME280;4197;42.130;24.746;2023-04-28T05:56:33;99930.38;;;11.00;46.16
8320;BME280;4197;42.130;24.746;2023-04-28T05:59:02;99931.44;;;10.95;46.78
8320;BME280;4197;42.130;24.746;2023-04-28T06:01:32;99942.63;;;10.93;46.17
8320;BME280;4197;42.130;24.746;2023-04-28T06:04:02;99937.66;;;10.96;46.63
8320;BME280;4197;42.130;24.746;2023-04-28T06:06:31;99940.22;;;11.04;46.23
8320;BME280;4197;42.130;24.746;2023-04-28T06:09:01;99934.78;;;11.04;46.30
8320;BME280;4197;42.130;24.746;2023-04-28T06:11:29;99934.84;;;11.20;46.83
8320;BME280;4197;42.130;24.746;2023-04-28T06:13:57;99941.44;;;11.35;46.28
8320;BME280;4197;42.130;24.746;2023-04-28T06:16:25;99930.69;;;11.38;45.25
8320;BME280;4197;42.130;24.746;2023-04-28T06:18:55;99939.28;;;11.41;45.11
8320;BME280;4197;42.130;24.746;2023-04-28T06:21:24;99938.66;;;11.31;45.71
8320;BME280;4197;42.130;24.746;2023-04-28T06:23:53;99951.44;;;11.31;45.94
8320;BME280;4197;42.130;24.746;2023-04-28T06:26:22;99941.94;;;11.25;46.07
8320;BME280;4197;42.130;24.746;2023-04-28T06:28:50;99937.06;;;11.30;46.95
8320;BME280;4197;42.130;24.746;2023-04-28T06:31:18;99941.28;;;11.44;47.15
8320;BME280;4197;42.130;24.746;2023-04-28T06:33:47;99937.66;;;11.68;46.31
8320;BME280;4197;42.130;24.746;2023-04-28T06:36:17;99939.16;;;11.81;46.42
8320;BME280;4197;42.130;24.746;2023-04-28T06:38:45;99937.00;;;11.87;45.47
8320;BME280;4197;42.130;24.746;2023-04-28T06:41:13;99945.75;;;11.96;46.01
8320;BME280;4197;42.130;24.746;2023-04-28T06:43:42;99951.72;;;12.01;46.49
8320;BME280;4197;42.130;24.746;2023-04-28T06:46:11;99944.81;;;12.04;45.61
8320;BME280;4197;42.130;24.746;2023-04-28T06:48:39;99949.91;;;12.05;45.73
8320;BME280;4197;42.130;24.746;2023-04-28T06:51:07;99947.44;;;12.00;46.31
8320;BME280;4197;42.130;24.746;2023-04-28T06:53:37;99941.19;;;12.16;45.90
8320;BME280;4197;42.130;24.746;2023-04-28T06:56:05;99946.25;;;12.33;45.37
8320;BME280;4197;42.130;24.746;2023-04-28T06:58:37;99936.53;;;12.32;45.33
8320;BME280;4197;42.130;24.746;2023-04-28T07:01:05;99938.91;;;12.34;44.96
8320;BME280;4197;42.130;24.746;2023-04-28T07:03:33;99941.78;;;12.41;45.47
8320;BME280;4197;42.130;24.746;2023-04-28T07:06:02;99942.81;;;12.52;44.02
8320;BME280;4197;42.130;24.746;2023-04-28T07:08:30;99944.81;;;12.55;43.25
8320;BME280;4197;42.130;24.746;2023-04-28T07:11:00;99945.63;;;12.56;43.15
8320;BME280;4197;42.130;24.746;2023-04-28T07:13:30;99944.47;;;12.57;43.63
8320;BME280;4197;42.130;24.746;2023-04-28T07:15:59;99947.66;;;12.78;43.26
8320;BME280;4197;42.130;24.746;2023-04-28T07:18:27;99944.34;;;12.88;42.41
8320;BME280;4197;42.130;24.746;2023-04-28T07:20:56;99942.78;;;12.87;42.77
8320;BME280;4197;42.130;24.746;2023-04-28T07:23:24;99932.56;;;13.00;42.16
8320;BME280;4197;42.130;24.746;2023-04-28T07:25:53;99940.22;;;13.14;41.24
8320;BME280;4197;42.130;24.746;2023-04-28T07:28:22;99938.41;;;13.22;41.32
8320;BME280;4197;42.130;24.746;2023-04-28T07:30:50;99946.47;;;13.14;42.57
8320;BME280;4197;42.130;24.746;2023-04-28T07:33:19;99943.94;;;13.25;41.47
8320;BME280;4197;42.130;24.746;2023-04-28T07:35:47;99941.09;;;13.37;41.33
8320;BME280;4197;42.130;24.746;2023-04-28T07:38:18;99946.31;;;13.46;41.57
8320;BME280;4197;42.130;24.746;2023-04-28T07:40:47;99941.25;;;13.45;40.98
8320;BME280;4197;42.130;24.746;2023-04-28T07:43:22;99941.53;;;13.39;41.96
8320;BME280;4197;42.130;24.746;2023-04-28T07:45:50;99934.91;;;13.41;41.60
8320;BME280;4197;42.130;24.746;2023-04-28T07:48:18;99936.19;;;13.47;41.97
8320;BME280;4197;42.130;24.746;2023-04-28T07:50:46;99923.59;;;13.58;41.33
8320;BME280;4197;42.130;24.746;2023-04-28T07:53:15;99937.50;;;13.53;41.47
8320;BME280;4197;42.130;24.746;2023-04-28T07:55:44;99936.41;;;13.57;41.22
8320;BME280;4197;42.130;24.746;2023-04-28T07:58:12;99925.44;;;13.54;41.15
8320;BME280;4197;42.130;24.746;2023-04-28T08:00:42;99927.50;;;13.60;41.06
8320;BME280;4197;42.130;24.746;2023-04-28T08:03:10;99915.81;;;13.60;41.04
8320;BME280;4197;42.130;24.746;2023-04-28T08:05:39;99927.28;;;13.69;41.60
8320;BME280;4197;42.130;24.746;2023-04-28T08:08:09;99923.94;;;13.79;41.17
8320;BME280;4197;42.130;24.746;2023-04-28T08:10:37;99914.41;;;13.93;40.61
8320;BME280;4197;42.130;24.746;2023-04-28T08:13:07;99918.78;;;13.97;40.03
8320;BME280;4197;42.130;24.746;2023-04-28T08:15:37;99912.06;;;13.91;40.88
8320;BME280;4197;42.130;24.746;2023-04-28T08:18:06;99923.16;;;13.79;40.51
8320;BME280;4197;42.130;24.746;2023-04-28T08:20:35;99920.59;;;13.90;40.66
8320;BME280;4197;42.130;24.746;2023-04-28T08:23:03;99918.09;;;14.04;39.92
8320;BME280;4197;42.130;24.746;2023-04-28T08:25:32;99919.34;;;14.10;39.82
8320;BME280;4197;42.130;24.746;2023-04-28T08:28:01;99917.38;;;14.07;40.70
8320;BME280;4197;42.130;24.746;2023-04-28T08:30:29;99910.19;;;13.72;40.61
8320;BME280;4197;42.130;24.746;2023-04-28T08:32:57;99914.97;;;13.79;40.94
8320;BME280;4197;42.130;24.746;2023-04-28T08:35:27;99909.75;;;14.16;40.11
8320;BME280;4197;42.130;24.746;2023-04-28T08:37:55;99898.34;;;14.37;39.19
8320;BME280;4197;42.130;24.746;2023-04-28T08:40:24;99903.22;;;14.51;38.94
8320;BME280;4197;42.130;24.746;2023-04-28T08:42:54;99906.22;;;14.69;38.95
8320;BME280;4197;42.130;24.746;2023-04-28T08:45:24;99897.16;;;14.61;38.88
8320;BME280;4197;42.130;24.746;2023-04-28T08:47:55;99896.50;;;14.18;39.37
8320;BME280;4197;42.130;24.746;2023-04-28T08:50:29;99891.56;;;14.54;38.56
8320;BME280;4197;42.130;24.746;2023-04-28T08:53:02;99886.31;;;14.68;38.27
8320;BME280;4197;42.130;24.746;2023-04-28T08:55:31;99877.88;;;14.81;39.21
8320;BME280;4197;42.130;24.746;2023-04-28T08:58:01;99881.97;;;14.94;39.55
8320;BME280;4197;42.130;24.746;2023-04-28T09:00:30;99886.38;;;15.06;39.79
8320;BME280;4197;42.130;24.746;2023-04-28T09:02:58;99883.47;;;15.25;39.62
8320;BME280;4197;42.130;24.746;2023-04-28T09:05:28;99885.59;;;15.46;38.30
8320;BME280;4197;42.130;24.746;2023-04-28T09:07:56;99877.94;;;15.62;38.25
8320;BME280;4197;42.130;24.746;2023-04-28T09:10:24;99876.53;;;15.76;38.72
8320;BME280;4197;42.130;24.746;2023-04-28T09:12:54;99881.31;;;15.86;37.21
8320;BME280;4197;42.130;24.746;2023-04-28T09:15:27;99875.00;;;15.82;37.61
8320;BME280;4197;42.130;24.746;2023-04-28T09:18:00;99871.72;;;15.66;37.38
8320;BME280;4197;42.130;24.746;2023-04-28T09:20:31;99873.28;;;15.63;38.05
8320;BME280;4197;42.130;24.746;2023-04-28T09:23:14;99870.16;;;15.65;37.47
8320;BME280;4197;42.130;24.746;2023-04-28T09:25:57;99859.22;;;15.65;37.25
8320;BME280;4197;42.130;24.746;2023-04-28T09:28:26;99865.09;;;15.67;37.73
8320;BME280;4197;42.130;24.746;2023-04-28T09:30:54;99874.00;;;15.56;38.04
8320;BME280;4197;42.130;24.746;2023-04-28T09:33:23;99852.97;;;15.60;36.72
8320;BME280;4197;42.130;24.746;2023-04-28T09:35:54;99866.88;;;15.07;37.33
8320;BME280;4197;42.130;24.746;2023-04-28T09:38:23;99862.72;;;15.21;37.54
8320;BME280;4197;42.130;24.746;2023-04-28T09:40:53;99859.97;;;15.21;37.83
8320;BME280;4197;42.130;24.746;2023-04-28T09:43:23;99855.06;;;15.33;37.00
8320;BME280;4197;42.130;24.746;2023-04-28T09:45:53;99856.84;;;15.59;36.65
8320;BME280;4197;42.130;24.746;2023-04-28T09:48:32;99859.47;;;15.93;37.08
8320;BME280;4197;42.130;24.746;2023-04-28T09:51:04;99857.00;;;16.36;36.10
8320;BME280;4197;42.130;24.746;2023-04-28T09:53:33;99849.34;;;16.63;36.05
8320;BME280;4197;42.130;24.746;2023-04-28T09:56:03;99843.44;;;16.58;35.91
8320;BME280;4197;42.130;24.746;2023-04-28T09:58:33;99847.31;;;16.49;35.92
8320;BME280;4197;42.130;24.746;2023-04-28T10:01:01;99840.53;;;16.29;36.08
8320;BME280;4197;42.130;24.746;2023-04-28T10:03:30;99832.19;;;16.00;37.00
8320;BME280;4197;42.130;24.746;2023-04-28T10:05:58;99832.50;;;15.92;37.07
8320;BME280;4197;42.130;24.746;2023-04-28T10:08:29;99832.19;;;16.00;36.57
8320;BME280;4197;42.130;24.746;2023-04-28T10:10:58;99831.41;;;16.00;36.65
8320;BME280;4197;42.130;24.746;2023-04-28T10:13:28;99831.25;;;15.34;37.54
8320;BME280;4197;42.130;24.746;2023-04-28T10:15:56;99821.44;;;15.74;36.36
8320;BME280;4197;42.130;24.746;2023-04-28T10:18:25;99827.47;;;15.97;36.36
8320;BME280;4197;42.130;24.746;2023-04-28T10:20:57;99819.22;;;15.90;36.21
8320;BME280;4197;42.130;24.746;2023-04-28T10:29:35;99803.50;;;16.49;35.49
8320;BME280;4197;42.130;24.746;2023-04-28T10:32:17;99803.47;;;16.35;36.19
8320;BME280;4197;42.130;24.746;2023-04-28T10:34:46;99799.19;;;16.48;36.24
8320;BME280;4197;42.130;24.746;2023-04-28T10:37:15;99788.63;;;16.43;37.14
8320;BME280;4197;42.130;24.746;2023-04-28T10:42:51;99791.84;;;15.90;38.25
8320;BME280;4197;42.130;24.746;2023-04-28T10:48:54;99794.75;;;16.15;35.28
8320;BME280;4197;42.130;24.746;2023-04-28T10:51:27;99795.22;;;16.32;35.12
8320;BME280;4197;42.130;24.746;2023-04-28T10:54:15;99785.19;;;16.64;35.17
8320;BME280;4197;42.130;24.746;2023-04-28T10:57:16;99780.22;;;17.16;33.51
8320;BME280;4197;42.130;24.746;2023-04-28T10:59:45;99784.53;;;17.50;33.74
8320;BME280;4197;42.130;24.746;2023-04-28T11:02:40;99784.16;;;17.58;32.88
8320;BME280;4197;42.130;24.746;2023-04-28T11:05:13;99788.44;;;17.77;32.79
8320;BME280;4197;42.130;24.746;2023-04-28T11:11:15;99779.03;;;17.93;33.52
8320;BME280;4197;42.130;24.746;2023-04-28T11:13:44;99784.91;;;18.02;32.17
8320;BME280;4197;42.130;24.746;2023-04-28T11:16:14;99789.63;;;17.94;32.22
8320;BME280;4197;42.130;24.746;2023-04-28T11:18:52;99789.63;;;17.87;32.45
8320;BME280;4197;42.130;24.746;2023-04-28T11:21:23;99793.16;;;17.77;32.08
8320;BME280;4197;42.130;24.746;2023-04-28T11:23:54;99788.81;;;17.90;31.84
8320;BME280;4197;42.130;24.746;2023-04-28T11:26:22;99784.91;;;17.91;32.18
8320;BME280;4197;42.130;24.746;2023-04-28T11:28:52;99777.91;;;17.79;31.58
8320;BME280;4197;42.130;24.746;2023-04-28T11:31:21;99782.56;;;17.72;31.46
8320;BME280;4197;42.130;24.746;2023-04-28T11:33:56;99773.16;;;17.83;31.60
8320;BME280;4197;42.130;24.746;2023-04-28T11:36:29;99762.97;;;17.84;31.91
8320;BME280;4197;42.130;24.746;2023-04-28T11:38:58;99764.91;;;17.98;32.11
8320;BME280;4197;42.130;24.746;2023-04-28T11:41:27;99774.28;;;18.11;31.43
8320;BME280;4197;42.130;24.746;2023-04-28T11:43:55;99764.91;;;17.94;31.92
8320;BME280;4197;42.130;24.746;2023-04-28T11:46:24;99770.81;;;17.86;31.74
8320;BME280;4197;42.130;24.746;2023-04-28T11:49:00;99763.78;;;17.38;32.27
8320;BME280;4197;42.130;24.746;2023-04-28T11:51:33;99757.50;;;16.98;33.79
8320;BME280;4197;42.130;24.746;2023-04-28T11:54:01;99757.91;;;17.39;32.73
8320;BME280;4197;42.130;24.746;2023-04-28T11:56:30;99750.09;;;17.42;32.17
8320;BME280;4197;42.130;24.746;2023-04-28T11:59:00;99738.72;;;16.97;33.64
8320;BME280;4197;42.130;24.746;2023-04-28T12:01:31;99736.78;;;16.93;33.34
8320;BME280;4197;42.130;24.746;2023-04-28T12:04:00;99735.59;;;17.27;34.81
8320;BME280;4197;42.130;24.746;2023-04-28T12:06:30;99732.44;;;17.53;33.71
8320;BME280;4197;42.130;24.746;2023-04-28T12:08:59;99731.25;;;17.69;32.88
8320;BME280;4197;42.130;24.746;2023-04-28T12:11:30;99727.31;;;17.70;32.88
8320;BME280;4197;42.130;24.746;2023-04-28T12:14:05;99729.69;;;17.64;33.60
8320;BME280;4197;42.130;24.746;2023-04-28T12:16:39;99722.25;;;17.68;33.94
8320;BME280;4197;42.130;24.746;2023-04-28T12:19:10;99713.28;;;17.35;34.40
8320;BME280;4197;42.130;24.746;2023-04-28T12:21:42;99711.31;;;16.93;34.99
8320;BME280;4197;42.130;24.746;2023-04-28T12:24:18;99708.97;;;16.84;34.95
8320;BME280;4197;42.130;24.746;2023-04-28T12:26:47;99708.97;;;16.81;35.01
8320;BME280;4197;42.130;24.746;2023-04-28T12:29:34;99695.66;;;16.86;35.63
8320;BME280;4197;42.130;24.746;2023-04-28T12:32:04;99697.63;;;17.00;35.85
8320;BME280;4197;42.130;24.746;2023-04-28T12:34:33;99703.50;;;17.02;35.69
8320;BME280;4197;42.130;24.746;2023-04-28T12:37:03;99692.09;;;16.75;35.20
8320;BME280;4197;42.130;24.746;2023-04-28T12:39:32;99688.22;;;16.83;36.13
8320;BME280;4197;42.130;24.746;2023-04-28T12:42:04;99677.66;;;17.14;34.88
8320;BME280;4197;42.130;24.746;2023-04-28T12:44:33;99685.88;;;17.28;34.74
8320;BME280;4197;42.130;24.746;2023-04-28T12:47:03;99682.31;;;17.46;34.91
8320;BME280;4197;42.130;24.746;2023-04-28T12:49:32;99677.97;;;17.66;34.01
8320;BME280;4197;42.130;24.746;2023-04-28T12:52:00;99672.91;;;17.57;33.83
8320;BME280;4197;42.130;24.746;2023-04-28T12:54:30;99672.94;;;17.47;34.25
8320;BME280;4197;42.130;24.746;2023-04-28T12:56:59;99670.19;;;17.47;34.28
8320;BME280;4197;42.130;24.746;2023-04-28T12:59:27;99660.41;;;17.42;34.33
8320;BME280;4197;42.130;24.746;2023-04-28T13:01:56;99657.66;;;17.49;34.64
8320;BME280;4197;42.130;24.746;2023-04-28T13:04:25;99654.81;;;17.71;35.22
8320;BME280;4197;42.130;24.746;2023-04-28T13:06:54;99649.31;;;17.96;35.26
8320;BME280;4197;42.130;24.746;2023-04-28T13:09:30;99645.41;;;17.75;34.96
8320;BME280;4197;42.130;24.746;2023-04-28T13:12:02;99644.00;;;17.17;35.62
8320;BME280;4197;42.130;24.746;2023-04-28T13:14:31;99638.50;;;17.17;35.94
8320;BME280;4197;42.130;24.746;2023-04-28T13:17:00;99635.00;;;17.13;36.40
8320;BME280;4197;42.130;24.746;2023-04-28T13:19:30;99629.91;;;17.22;36.33
8320;BME280;4197;42.130;24.746;2023-04-28T13:22:01;99636.94;;;17.20;35.25
8320;BME280;4197;42.130;24.746;2023-04-28T13:24:37;99627.19;;;17.08;35.38
8320;BME280;4197;42.130;24.746;2023-04-28T13:27:12;99619.75;;;16.98;35.88
8320;BME280;4197;42.130;24.746;2023-04-28T13:29:44;99626.00;;;17.20;36.28
8320;BME280;4197;42.130;24.746;2023-04-28T13:32:13;99631.47;;;17.27;35.64
8320;BME280;4197;42.130;24.746;2023-04-28T13:34:42;99632.25;;;17.09;35.76
8320;BME280;4197;42.130;24.746;2023-04-28T13:37:13;99626.44;;;16.82;35.71
8320;BME280;4197;42.130;24.746;2023-04-28T13:39:47;99631.13;;;16.85;35.98
8320;BME280;4197;42.130;24.746;2023-04-28T13:42:18;99624.44;;;16.58;36.08
8320;BME280;4197;42.130;24.746;2023-04-28T13:44:48;99619.34;;;16.63;36.18